createdAt,value
2022-08-28T00:00:54.377Z,100737.38
2022-08-28T00:03:45.299Z,100741.00
2022-08-28T00:06:35.850Z,100753.56
2022-08-28T00:09:25.879Z,100752.34
2022-08-28T00:12:15.972Z,100743.28
2022-08-28T00:15:11.969Z,100746.75
2022-08-28T00:18:05.080Z,100749.81
2022-08-28T00:21:00.954Z,100752.03
2022-08-28T00:23:51.181Z,100754.16
2022-08-28T00:26:59.160Z,100754.25
2022-08-28T00:29:49.645Z,100754.53
2022-08-28T00:32:38.832Z,100753.31
2022-08-28T00:35:28.191Z,100764.38
2022-08-28T00:38:22.499Z,100751.97
2022-08-28T00:41:13.588Z,100763.69
2022-08-28T00:44:16.639Z,100748.50
2022-08-28T00:47:06.301Z,100753.25
2022-08-28T00:49:58.370Z,100746.63
2022-08-28T00:52:50.101Z,100750.41
2022-08-28T00:55:40.566Z,100758.06
2022-08-28T00:58:31.531Z,100757.03
2022-08-28T01:01:22.025Z,100757.47
2022-08-28T01:04:18.398Z,100758.34
2022-08-28T01:07:11.304Z,100750.41
2022-08-28T01:10:02.440Z,100752.28
2022-08-28T01:12:55.860Z,100746.69
2022-08-28T01:15:46.996Z,100745.41
2022-08-28T01:18:37.425Z,100744.22
2022-08-28T01:21:28.925Z,100739.03
2022-08-28T01:24:21.084Z,100745.09
2022-08-28T01:27:10.475Z,100740.13
2022-08-28T01:30:00.303Z,100730.34
2022-08-28T01:32:53.203Z,100718.50
2022-08-28T01:35:45.683Z,100718.56
2022-08-28T01:38:35.738Z,100726.28
2022-08-28T01:41:25.665Z,100720.25
2022-08-28T01:44:18.329Z,100726.09
2022-08-28T01:47:08.000Z,100722.56
2022-08-28T01:50:00.221Z,100720.69
2022-08-28T01:52:51.346Z,100707.28
2022-08-28T01:55:41.077Z,100707.56
2022-08-28T01:58:33.005Z,100704.53
2022-08-28T02:01:26.047Z,100704.53
2022-08-28T02:04:16.699Z,100701.47
2022-08-28T02:07:07.140Z,100695.34
2022-08-28T02:09:57.346Z,100701.63
2022-08-28T02:12:47.609Z,100689.16
2022-08-28T02:15:38.582Z,100696.53
2022-08-28T02:18:28.512Z,100706.94
2022-08-28T02:21:18.659Z,100693.59
2022-08-28T02:24:12.635Z,100695.09
2022-08-28T02:27:02.819Z,100702.56
2022-08-28T02:29:52.513Z,100696.63
2022-08-28T02:32:42.817Z,100709.94
2022-08-28T02:35:34.728Z,100714.19
2022-08-28T02:38:24.508Z,100712.97
2022-08-28T02:41:14.798Z,100707.63
2022-08-28T02:44:04.665Z,100711.44
2022-08-28T02:46:58.440Z,100704.56
2022-08-28T02:49:49.569Z,100705.19
2022-08-28T02:52:40.467Z,100711.88
2022-08-28T02:55:33.996Z,100706.03
2022-08-28T02:58:24.590Z,100702.69
2022-08-28T03:01:15.810Z,100712.28
2022-08-28T03:04:07.013Z,100705.59
2022-08-28T03:06:57.205Z,100709.13
2022-08-28T03:09:47.523Z,100707.00
2022-08-28T03:12:38.009Z,100705.97
2022-08-28T03:15:27.941Z,100709.28
2022-08-28T03:18:19.337Z,100711.00
2022-08-28T03:21:10.055Z,100711.16
2022-08-28T03:23:59.593Z,100710.09
2022-08-28T03:26:49.765Z,100698.00
2022-08-28T03:29:39.573Z,100695.50
2022-08-28T03:32:29.433Z,100709.19
2022-08-28T03:35:19.532Z,100699.19
2022-08-28T03:38:09.343Z,100705.59
2022-08-28T03:41:02.789Z,100709.53
2022-08-28T03:43:52.830Z,100693.75
2022-08-28T03:49:48.337Z,100692.50
2022-08-28T03:52:38.366Z,100684.19
2022-08-28T03:55:28.066Z,100681.28
2022-08-28T03:58:21.980Z,100673.63
2022-08-28T04:01:12.454Z,100669.88
2022-08-28T04:04:02.423Z,100672.56
2022-08-28T04:06:51.866Z,100668.84
2022-08-28T04:09:41.925Z,100658.00
2022-08-28T04:12:35.473Z,100660.09
2022-08-28T04:15:26.193Z,100649.72
2022-08-28T04:18:17.209Z,100660.94
2022-08-28T04:21:13.053Z,100650.81
2022-08-28T04:24:04.993Z,100636.66
2022-08-28T04:26:57.696Z,100629.84
2022-08-28T04:29:47.183Z,100645.47
2022-08-28T04:32:37.849Z,100645.69
2022-08-28T04:35:27.606Z,100641.94
2022-08-28T04:38:17.215Z,100638.78
2022-08-28T04:41:12.932Z,100637.34
2022-08-28T04:44:03.193Z,100636.09
2022-08-28T04:46:53.109Z,100631.09
2022-08-28T04:49:45.344Z,100615.25
2022-08-28T04:52:35.537Z,100595.28
2022-08-28T04:55:27.888Z,100587.56
2022-08-28T04:58:35.649Z,100579.44
2022-08-28T05:01:26.319Z,100583.19
2022-08-28T05:04:15.807Z,100589.03
2022-08-28T05:07:08.539Z,100589.41
2022-08-28T05:09:58.622Z,100584.44
2022-08-28T05:12:48.068Z,100591.94
2022-08-28T05:15:41.721Z,100595.50
2022-08-28T05:18:31.821Z,100582.38
2022-08-28T05:21:24.242Z,100574.44
2022-08-28T05:24:15.197Z,100566.53
2022-08-28T05:27:05.179Z,100548.16
2022-08-28T05:29:59.729Z,100544.84
2022-08-28T05:32:52.567Z,100548.59
2022-08-28T05:35:46.036Z,100540.22
2022-08-28T05:38:39.418Z,100539.38
2022-08-28T05:41:34.239Z,100536.59
2022-08-28T05:44:23.660Z,100543.50
2022-08-28T05:47:16.273Z,100540.56
2022-08-28T05:50:15.044Z,100535.13
2022-08-28T05:53:05.184Z,100520.53
2022-08-28T05:55:56.016Z,100527.03
2022-08-28T05:58:46.530Z,100539.38
2022-08-28T06:01:41.182Z,100541.47
2022-08-28T06:04:33.535Z,100527.69
2022-08-28T06:07:23.246Z,100521.25
2022-08-28T06:10:12.578Z,100530.44
2022-08-28T06:13:05.734Z,100529.84
2022-08-28T06:15:58.203Z,100525.69
2022-08-28T06:18:48.898Z,100533.19
2022-08-28T06:21:42.302Z,100539.44
2022-08-28T06:24:36.166Z,100560.69
2022-08-28T06:27:27.444Z,100553.81
2022-08-28T06:30:17.180Z,100531.56
2022-08-28T06:33:08.255Z,100531.56
2022-08-28T06:35:59.144Z,100531.13
2022-08-28T06:38:48.790Z,100525.09
2022-08-28T06:41:46.912Z,100522.78
2022-08-28T06:44:40.592Z,100519.47
2022-08-28T06:47:30.682Z,100521.53
2022-08-28T06:50:20.755Z,100511.97
2022-08-28T06:53:11.651Z,100516.34
2022-08-28T06:56:13.603Z,100520.50
2022-08-28T06:59:15.773Z,100520.09
2022-08-28T07:02:07.653Z,100518.63
2022-08-28T07:04:57.682Z,100516.13
2022-08-28T07:07:48.159Z,100523.22
2022-08-28T07:10:38.851Z,100509.91
2022-08-28T07:13:33.954Z,100508.22
2022-08-28T07:16:35.909Z,100499.69
2022-08-28T07:19:25.775Z,100491.75
2022-08-28T07:22:15.993Z,100493.22
2022-08-28T07:25:06.825Z,100486.56
2022-08-28T07:27:56.707Z,100489.28
2022-08-28T07:30:47.493Z,100475.31
2022-08-28T07:33:38.914Z,100473.22
2022-08-28T07:36:30.163Z,100466.56
2022-08-28T07:39:22.743Z,100467.81
2022-08-28T07:42:35.562Z,100452.38
2022-08-28T07:45:27.738Z,100455.28
2022-08-28T07:48:17.957Z,100451.94
2022-08-28T07:51:12.205Z,100454.84
2022-08-28T07:54:01.740Z,100455.91
2022-08-28T07:56:52.538Z,100457.56
2022-08-28T07:59:44.276Z,100464.44
2022-08-28T08:02:34.188Z,100464.06
2022-08-28T08:05:27.131Z,100475.94
2022-08-28T08:08:17.264Z,100479.44
2022-08-28T08:11:11.330Z,100482.81
2022-08-28T08:14:07.471Z,100489.88
2022-08-28T08:16:57.576Z,100498.00
2022-08-28T08:19:47.872Z,100498.22
2022-08-28T08:22:40.724Z,100502.16
2022-08-28T08:25:30.622Z,100510.72
2022-08-28T08:28:23.396Z,100507.38
2022-08-28T08:31:22.661Z,100509.03
2022-08-28T08:34:12.595Z,100505.31
2022-08-28T08:37:02.947Z,100499.47
2022-08-28T08:39:54.737Z,100497.38
2022-08-28T08:42:48.316Z,100503.22
2022-08-28T08:45:41.281Z,100504.88
2022-08-28T08:48:35.928Z,100513.84
2022-08-28T08:51:45.453Z,100525.50
2022-08-28T08:54:35.090Z,100528.63
2022-08-28T08:57:25.628Z,100524.06
2022-08-28T09:00:17.006Z,100531.97
2022-08-28T09:03:16.619Z,100533.41
2022-08-28T09:06:08.225Z,100535.31
2022-08-28T09:09:05.579Z,100530.50
2022-08-28T09:12:05.167Z,100538.81
2022-08-28T09:15:12.715Z,100532.78
2022-08-28T09:18:15.532Z,100534.03
2022-08-28T09:21:06.999Z,100527.59
2022-08-28T09:23:57.166Z,100523.41
2022-08-28T09:27:01.454Z,100523.44
2022-08-28T09:30:08.065Z,100522.78
2022-08-28T09:33:02.300Z,100531.75
2022-08-28T09:35:52.289Z,100535.50
2022-08-28T09:38:42.088Z,100544.66
2022-08-28T09:42:08.026Z,100540.72
2022-08-28T09:45:03.267Z,100558.59
2022-08-28T09:48:05.028Z,100571.06
2022-08-28T09:51:06.287Z,100581.66
2022-08-28T09:53:56.295Z,100575.84
2022-08-28T09:56:46.395Z,100575.22
2022-08-28T09:59:35.944Z,100578.97
2022-08-28T10:02:30.855Z,100585.19
2022-08-28T10:05:40.295Z,100592.28
2022-08-28T10:08:46.244Z,100597.88
2022-08-28T10:11:57.231Z,100613.06
2022-08-28T10:15:11.011Z,100620.13
2022-08-28T10:18:03.955Z,100622.63
2022-08-28T10:21:12.305Z,100627.63
2022-08-28T10:24:02.163Z,100626.38
2022-08-28T10:27:16.023Z,100628.63
2022-08-28T10:30:13.480Z,100616.34
2022-08-28T10:33:27.057Z,100617.22
2022-08-28T10:36:33.251Z,100627.16
2022-08-28T10:39:35.566Z,100626.72
2022-08-28T10:42:38.668Z,100619.66
2022-08-28T10:45:28.429Z,100613.41
2022-08-28T10:48:25.782Z,100626.94
2022-08-28T10:51:34.821Z,100654.63
2022-08-28T10:54:43.125Z,100656.69
2022-08-28T10:57:39.710Z,100655.84
2022-08-28T11:00:30.273Z,100651.06
2022-08-28T11:03:33.844Z,100643.34
2022-08-28T11:06:39.460Z,100641.28
2022-08-28T11:09:47.736Z,100633.97
2022-08-28T11:12:40.429Z,100645.81
2022-08-28T11:15:36.852Z,100639.59
2022-08-28T11:19:03.217Z,100647.94
2022-08-28T11:22:14.453Z,100660.38
2022-08-28T11:25:26.261Z,100663.28
2022-08-28T11:28:30.923Z,100666.38
2022-08-28T11:31:29.127Z,100669.47
2022-08-28T11:35:16.360Z,100690.22
2022-08-28T11:38:07.117Z,100697.59
2022-08-28T11:40:59.472Z,100708.72
2022-08-28T11:44:14.315Z,100703.81
2022-08-28T11:47:42.939Z,100729.81
2022-08-28T11:50:34.618Z,100753.66
2022-08-28T11:54:01.057Z,100776.41
2022-08-28T11:57:10.271Z,100799.22
2022-08-28T12:00:05.427Z,100815.25
2022-08-28T12:02:58.064Z,100819.88
2022-08-28T12:05:51.439Z,100817.47
2022-08-28T12:08:49.037Z,100812.16
2022-08-28T12:11:41.913Z,100793.28
2022-08-28T12:14:31.443Z,100793.44
2022-08-28T12:17:27.917Z,100801.00
2022-08-28T12:20:42.617Z,100799.38
2022-08-28T12:23:36.216Z,100814.28
2022-08-28T12:26:32.447Z,100828.63
2022-08-28T12:29:34.062Z,100835.06
2022-08-28T12:32:38.712Z,100815.91
2022-08-28T12:35:30.248Z,100817.03
2022-08-28T12:38:23.696Z,100816.75
2022-08-28T12:41:21.464Z,100820.19
2022-08-28T12:44:13.661Z,100841.41
2022-08-28T12:47:04.000Z,100865.41
2022-08-28T12:49:53.927Z,100859.72
2022-08-28T12:52:53.486Z,100878.16
2022-08-28T12:55:43.241Z,100890.47
2022-08-28T12:58:36.077Z,100912.19
2022-08-28T13:01:34.668Z,100928.59
2022-08-28T13:04:37.563Z,100938.72
2022-08-28T13:07:40.868Z,100955.13
2022-08-28T13:10:33.503Z,100959.72
2022-08-28T13:13:31.134Z,100969.50
2022-08-28T13:16:44.396Z,100982.44
2022-08-28T13:19:35.333Z,100994.13
2022-08-28T13:22:36.650Z,100993.09
2022-08-28T13:25:30.401Z,100983.41
2022-08-28T13:28:20.969Z,100987.09
2022-08-28T13:31:24.748Z,100975.97
2022-08-28T13:34:36.565Z,100973.94
2022-08-28T13:38:03.515Z,100961.81
2022-08-28T13:40:59.922Z,100953.78
2022-08-28T13:43:49.938Z,100941.69
2022-08-28T13:46:41.061Z,100935.66
2022-08-28T13:49:31.110Z,100915.09
2022-08-28T13:52:21.335Z,100910.06
2022-08-28T13:55:14.806Z,100899.28
2022-08-28T13:58:05.375Z,100889.81
2022-08-28T14:00:55.754Z,100869.72
2022-08-28T14:03:46.051Z,100873.75
2022-08-28T14:06:36.492Z,100872.59
2022-08-28T14:09:28.413Z,100863.34
2022-08-28T14:12:18.583Z,100860.34
2022-08-28T14:15:09.180Z,100854.78
2022-08-28T14:17:59.296Z,100861.31
2022-08-28T14:20:49.823Z,100874.59
2022-08-28T14:23:39.399Z,100882.88
2022-08-28T14:26:29.506Z,100885.69
2022-08-28T14:29:20.169Z,100872.59
2022-08-28T14:32:10.179Z,100872.41
2022-08-28T14:35:00.334Z,100872.75
2022-08-28T14:37:50.224Z,100874.44
2022-08-28T14:40:42.417Z,100857.59
2022-08-28T14:43:32.973Z,100852.88
2022-08-28T14:46:29.718Z,100851.88
2022-08-28T14:49:20.819Z,100847.63
2022-08-28T14:52:11.549Z,100855.63
2022-08-28T14:55:03.817Z,100855.25
2022-08-28T14:57:53.609Z,100844.13
2022-08-28T15:00:50.676Z,100829.50
2022-08-28T15:03:40.381Z,100826.34
2022-08-28T15:06:30.868Z,100830.41
2022-08-28T15:09:20.949Z,100831.25
2022-08-28T15:12:11.844Z,100819.28
2022-08-28T15:15:01.560Z,100830.22
2022-08-28T15:17:51.625Z,100833.41
2022-08-28T15:20:44.711Z,100834.59
2022-08-28T15:23:34.431Z,100835.81
2022-08-28T15:26:28.931Z,100828.81
2022-08-28T15:29:19.671Z,100826.41
2022-08-28T15:32:09.852Z,100824.66
2022-08-28T15:34:59.121Z,100824.31
2022-08-28T15:37:50.086Z,100815.66
2022-08-28T15:40:57.396Z,100813.16
2022-08-28T15:43:47.937Z,100804.44
2022-08-28T15:46:40.701Z,100810.63
2022-08-28T15:49:32.283Z,100811.28
2022-08-28T15:52:26.525Z,100817.34
2022-08-28T15:55:15.916Z,100830.00
2022-08-28T15:58:13.974Z,100830.16
2022-08-28T16:01:05.971Z,100837.59
2022-08-28T16:03:56.103Z,100838.06
2022-08-28T16:06:45.689Z,100851.34
2022-08-28T16:09:36.231Z,100851.91
2022-08-28T16:12:26.958Z,100852.94
2022-08-28T16:15:21.105Z,100838.78
2022-08-28T16:18:11.505Z,100855.97
2022-08-28T16:21:04.676Z,100846.69
2022-08-28T16:23:55.118Z,100827.34
2022-08-28T16:26:44.947Z,100827.16
2022-08-28T16:29:38.037Z,100820.94
2022-08-28T16:32:29.086Z,100830.06
2022-08-28T16:35:18.876Z,100841.19
2022-08-28T16:38:08.564Z,100845.56
2022-08-28T16:40:59.709Z,100864.78
2022-08-28T16:43:52.563Z,100871.34
2022-08-28T16:46:42.364Z,100874.25
2022-08-28T16:49:32.264Z,100873.22
2022-08-28T16:52:22.267Z,100878.66
2022-08-28T16:55:14.029Z,100878.06
2022-08-28T16:58:06.602Z,100877.56
2022-08-28T17:00:56.800Z,100884.50
2022-08-28T17:03:47.400Z,100881.50
2022-08-28T17:06:37.035Z,100889.25
2022-08-28T17:09:27.232Z,100879.66
2022-08-28T17:12:18.057Z,100876.31
2022-08-28T17:15:09.256Z,100867.94
2022-08-28T17:18:01.308Z,100867.06
2022-08-28T17:21:08.782Z,100860.38
2022-08-28T17:23:59.168Z,100864.06
2022-08-28T17:26:49.164Z,100862.38
2022-08-28T17:29:40.248Z,100863.75
2022-08-28T17:32:30.596Z,100860.41
2022-08-28T17:35:22.861Z,100849.63
2022-08-28T17:38:13.300Z,100845.25
2022-08-28T17:41:07.533Z,100854.34
2022-08-28T17:43:58.296Z,100855.72
2022-08-28T17:46:48.123Z,100849.66
2022-08-28T17:49:38.470Z,100838.25
2022-08-28T17:52:28.899Z,100833.88
2022-08-28T17:55:18.204Z,100834.06
2022-08-28T17:58:08.085Z,100827.16
2022-08-28T18:00:59.743Z,100820.44
2022-08-28T18:03:53.278Z,100817.75
2022-08-28T18:06:43.406Z,100824.16
2022-08-28T18:09:33.306Z,100824.50
2022-08-28T18:12:23.216Z,100808.19
2022-08-28T18:15:15.262Z,100808.34
2022-08-28T18:18:09.284Z,100805.34
2022-08-28T18:20:59.288Z,100807.03
2022-08-28T18:23:49.147Z,100807.38
2022-08-28T18:26:38.534Z,100806.38
2022-08-28T18:29:29.084Z,100810.72
2022-08-28T18:32:19.086Z,100816.47
2022-08-28T18:35:09.537Z,100815.75
2022-08-28T18:37:59.980Z,100809.06
2022-08-28T18:40:50.075Z,100802.84
2022-08-28T18:43:40.550Z,100805.53
2022-08-28T18:46:30.718Z,100807.38
2022-08-28T18:49:21.895Z,100806.56
2022-08-28T18:52:11.329Z,100799.66
2022-08-28T18:55:00.832Z,100812.47
2022-08-28T18:57:54.851Z,100810.78
2022-08-28T19:00:46.447Z,100805.41
2022-08-28T19:03:36.478Z,100804.56
2022-08-28T19:06:26.564Z,100796.66
2022-08-28T19:09:19.339Z,100794.66
2022-08-28T19:12:10.467Z,100789.63
2022-08-28T19:15:00.695Z,100788.59
2022-08-28T19:17:50.060Z,100785.06
2022-08-28T19:20:40.009Z,100776.84
2022-08-28T19:23:29.854Z,100769.28
2022-08-28T19:26:19.143Z,100774.50
2022-08-28T19:29:09.096Z,100782.06
2022-08-28T19:31:59.615Z,100782.72
2022-08-28T19:34:48.851Z,100778.19
2022-08-28T19:37:42.091Z,100779.88
2022-08-28T19:40:35.029Z,100781.72
2022-08-28T19:43:25.429Z,100780.88
2022-08-28T19:46:32.796Z,100779.56
2022-08-28T19:49:22.639Z,100781.22
2022-08-28T19:52:12.919Z,100776.84
2022-08-28T19:55:05.320Z,100780.22
2022-08-28T19:57:55.902Z,100775.84
2022-08-28T20:00:45.856Z,100776.84
2022-08-28T20:03:37.709Z,100775.53
2022-08-28T20:06:29.009Z,100777.88
2022-08-28T20:09:19.207Z,100790.13
2022-08-28T20:12:08.815Z,100782.06
2022-08-28T20:15:02.701Z,100788.28
2022-08-28T20:17:53.633Z,100800.06
2022-08-28T20:20:47.176Z,100798.53
2022-08-28T20:23:36.983Z,100809.81
2022-08-28T20:26:28.933Z,100803.75
2022-08-28T20:29:19.326Z,100805.44
2022-08-28T20:32:09.068Z,100811.47
2022-08-28T20:35:01.061Z,100813.50
2022-08-28T20:37:51.331Z,100806.44
2022-08-28T20:40:41.224Z,100806.09
2022-08-28T20:43:31.213Z,100799.38
2022-08-28T20:46:21.155Z,100809.81
2022-08-28T20:49:12.157Z,100799.03
2022-08-28T20:52:03.102Z,100803.09
2022-08-28T20:54:52.901Z,100805.78
2022-08-28T20:57:43.120Z,100806.44
2022-08-28T21:00:32.450Z,100803.25
2022-08-28T21:03:27.198Z,100797.72
2022-08-28T21:06:18.806Z,100787.31
2022-08-28T21:09:09.261Z,100792.69
2022-08-28T21:11:59.173Z,100783.94
2022-08-28T21:14:51.843Z,100788.97
2022-08-28T21:17:42.214Z,100790.81
2022-08-28T21:20:31.864Z,100787.66
2022-08-28T21:23:21.425Z,100795.72
2022-08-28T21:26:13.187Z,100800.06
2022-08-28T21:29:03.085Z,100803.78
2022-08-28T21:31:54.294Z,100807.13
2022-08-28T21:34:43.735Z,100817.38
2022-08-28T21:37:33.187Z,100821.06
2022-08-28T21:40:22.795Z,100827.31
2022-08-28T21:43:12.736Z,100825.28
2022-08-28T21:46:03.881Z,100826.97
2022-08-28T21:48:57.624Z,100837.38
2022-08-28T21:51:48.029Z,100842.25
2022-08-28T21:54:38.264Z,100842.44
2022-08-28T21:57:28.384Z,100852.53
2022-08-28T22:00:21.474Z,100851.31
2022-08-28T22:03:10.969Z,100849.66
2022-08-28T22:06:00.622Z,100862.28
2022-08-28T22:08:51.088Z,100867.31
2022-08-28T22:11:40.940Z,100868.31
2022-08-28T22:14:30.905Z,100867.47
2022-08-28T22:17:20.546Z,100871.69
2022-08-28T22:20:10.955Z,100879.06
2022-08-28T22:23:12.378Z,100882.44
2022-08-28T22:26:08.147Z,100896.03
2022-08-28T22:28:57.673Z,100896.88
2022-08-28T22:31:48.440Z,100910.47
2022-08-28T22:34:42.733Z,100915.72
2022-08-28T22:37:33.611Z,100910.34
2022-08-28T22:40:25.551Z,100912.69
2022-08-28T22:43:16.622Z,100918.88
2022-08-28T22:46:06.315Z,100916.88
2022-08-28T22:48:56.404Z,100911.81
2022-08-28T22:51:46.012Z,100918.06
2022-08-28T22:54:36.114Z,100915.53
2022-08-28T22:57:26.829Z,100917.22
2022-08-28T23:00:25.420Z,100910.31
2022-08-28T23:03:15.005Z,100913.00
2022-08-28T23:06:05.095Z,100919.88
2022-08-28T23:08:55.251Z,100922.75
2022-08-28T23:11:45.332Z,100920.75
2022-08-28T23:14:35.670Z,100932.84
2022-08-28T23:17:25.329Z,100938.88
2022-08-28T23:20:19.254Z,100950.28
2022-08-28T23:23:09.998Z,100949.13
2022-08-28T23:25:59.644Z,100956.84
2022-08-28T23:28:53.003Z,100960.06
2022-08-28T23:31:45.489Z,100967.44
2022-08-28T23:34:37.909Z,100959.38
2022-08-28T23:37:27.345Z,100964.75
2022-08-28T23:40:20.779Z,100956.19
2022-08-28T23:43:11.346Z,100969.13
2022-08-28T23:46:02.058Z,100950.81
2022-08-28T23:48:52.710Z,100960.72
2022-08-28T23:51:43.131Z,100967.09
2022-08-28T23:54:32.863Z,100972.75
2022-08-28T23:57:22.758Z,100978.13
